createdAt,value
2017-07-18T00:00:14.585Z,95886.94
2017-07-18T00:02:42.490Z,95881.67
2017-07-18T00:05:10.265Z,95881.02
2017-07-18T00:07:37.920Z,95889.65
2017-07-18T00:10:05.718Z,95878.47
2017-07-18T00:12:33.826Z,95881.27
2017-07-18T00:15:01.991Z,95884.45
2017-07-18T00:17:29.854Z,95876.41
2017-07-18T00:19:57.468Z,95871.02
2017-07-18T00:22:25.348Z,95870.83
2017-07-18T00:24:53.503Z,95869.84
2017-07-18T00:27:21.095Z,95868.23
2017-07-18T00:29:49.427Z,95865.81
2017-07-18T00:32:17.027Z,95873.75
2017-07-18T00:34:44.640Z,95869.55
2017-07-18T00:37:12.247Z,95873.17
2017-07-18T00:39:39.859Z,95867.70
2017-07-18T00:42:07.491Z,95868.55
2017-07-18T00:44:35.178Z,95878.23
2017-07-18T00:47:03.680Z,95871.73
2017-07-18T00:49:31.278Z,95867.84
2017-07-18T00:51:58.901Z,95873.45
2017-07-18T00:54:26.548Z,95876.14
2017-07-18T00:56:54.737Z,95871.52
2017-07-18T00:59:22.496Z,95872.00
2017-07-18T01:01:50.959Z,95869.30
2017-07-18T01:04:19.352Z,95869.58
2017-07-18T01:06:46.973Z,95868.15
2017-07-18T01:09:14.787Z,95868.95
2017-07-18T01:11:42.567Z,95870.25
2017-07-18T01:14:10.366Z,95870.41
2017-07-18T01:16:37.995Z,95873.97
2017-07-18T01:19:05.743Z,95873.33
2017-07-18T01:21:33.557Z,95874.09
2017-07-18T01:24:01.317Z,95867.81
2017-07-18T01:26:29.834Z,95866.88
2017-07-18T01:28:57.545Z,95860.56
2017-07-18T01:31:25.206Z,95861.81
2017-07-18T01:33:53.320Z,95865.36
2017-07-18T01:36:21.759Z,95858.61
2017-07-18T01:38:51.395Z,95866.61
2017-07-18T01:41:19.265Z,95864.84
2017-07-18T01:43:46.863Z,95868.11
2017-07-18T01:46:14.557Z,95855.80
2017-07-18T01:48:42.343Z,95869.72
2017-07-18T01:51:09.981Z,95856.81
2017-07-18T01:53:37.661Z,95859.83
2017-07-18T01:56:05.276Z,95862.74
2017-07-18T01:58:33.728Z,95864.86
2017-07-18T02:01:01.528Z,95860.64
2017-07-18T02:03:29.177Z,95856.77
2017-07-18T02:05:57.671Z,95859.50
2017-07-18T02:08:25.307Z,95861.14
2017-07-18T02:10:52.946Z,95863.13
2017-07-18T02:13:20.576Z,95867.77
2017-07-18T02:15:48.362Z,95877.13
2017-07-18T02:18:16.197Z,95877.07
2017-07-18T02:20:43.764Z,95873.27
2017-07-18T02:23:11.431Z,95873.89
2017-07-18T02:25:39.043Z,95872.73
2017-07-18T02:28:06.680Z,95879.02
2017-07-18T02:30:35.158Z,95883.93
2017-07-18T02:33:02.748Z,95890.20
2017-07-18T02:35:30.420Z,95891.80
2017-07-18T02:37:58.126Z,95886.05
2017-07-18T02:40:25.784Z,95891.47
2017-07-18T02:42:53.389Z,95893.92
2017-07-18T02:45:21.323Z,95893.91
2017-07-18T02:47:49.524Z,95898.43
2017-07-18T02:50:17.445Z,95903.51
2017-07-18T02:52:45.119Z,95904.84
2017-07-18T02:55:12.734Z,95900.31
2017-07-18T02:57:40.311Z,95897.98
2017-07-18T03:00:08.026Z,95903.11
2017-07-18T03:02:36.346Z,95907.06
2017-07-18T03:05:04.031Z,95900.74
2017-07-18T03:07:32.018Z,95895.66
2017-07-18T03:09:59.839Z,95893.63
2017-07-18T03:12:27.519Z,95895.70
2017-07-18T03:14:55.945Z,95900.13
2017-07-18T03:17:23.835Z,95903.58
2017-07-18T03:19:51.564Z,95897.62
2017-07-18T03:22:19.695Z,95883.28
2017-07-18T03:24:48.028Z,95895.13
2017-07-18T03:27:15.728Z,95900.54
2017-07-18T03:29:43.449Z,95900.02
2017-07-18T03:32:11.165Z,95904.84
2017-07-18T03:34:39.124Z,95905.34
2017-07-18T03:37:07.257Z,95906.84
2017-07-18T03:39:35.088Z,95903.20
2017-07-18T03:42:02.763Z,95902.72
2017-07-18T03:44:30.956Z,95909.63
2017-07-18T03:46:58.613Z,95915.09
2017-07-18T03:49:26.239Z,95914.88
2017-07-18T03:51:53.983Z,95910.48
2017-07-18T03:54:21.676Z,95909.69
2017-07-18T03:56:49.374Z,95909.00
2017-07-18T03:59:17.032Z,95910.70
2017-07-18T04:01:44.708Z,95915.40
2017-07-18T04:04:12.834Z,95912.09
2017-07-18T04:06:40.439Z,95914.08
2017-07-18T04:09:08.088Z,95918.11
2017-07-18T04:11:35.748Z,95914.85
2017-07-18T04:14:04.127Z,95918.58
2017-07-18T04:16:31.746Z,95917.81
2017-07-18T04:18:59.608Z,95916.98
2017-07-18T04:21:28.189Z,95916.94
2017-07-18T04:23:55.814Z,95921.63
2017-07-18T04:26:23.513Z,95923.22
2017-07-18T04:28:51.154Z,95928.89
2017-07-18T04:31:18.941Z,95925.95
2017-07-18T04:33:46.624Z,95924.13
2017-07-18T04:36:14.222Z,95932.24
2017-07-18T04:38:41.859Z,95921.47
2017-07-18T04:41:11.326Z,95920.69
2017-07-18T04:43:39.162Z,95926.97
2017-07-18T04:46:07.720Z,95927.88
2017-07-18T04:48:35.598Z,95924.11
2017-07-18T04:51:03.997Z,95921.64
2017-07-18T04:53:31.574Z,95931.38
2017-07-18T04:55:59.225Z,95929.01
2017-07-18T04:58:28.032Z,95936.78
2017-07-18T05:00:56.376Z,95929.69
2017-07-18T05:03:24.012Z,95936.94
2017-07-18T05:05:51.630Z,95942.03
2017-07-18T05:08:19.272Z,95941.42
2017-07-18T05:10:46.885Z,95937.09
2017-07-18T05:13:14.469Z,95936.50
2017-07-18T05:15:42.042Z,95939.08
2017-07-18T05:18:09.683Z,95944.98
2017-07-18T05:20:37.307Z,95939.50
2017-07-18T05:23:04.976Z,95936.74
2017-07-18T05:25:32.754Z,95941.67
2017-07-18T05:28:00.522Z,95943.00
2017-07-18T05:30:28.200Z,95945.04
2017-07-18T05:32:55.819Z,95949.13
2017-07-18T05:35:23.404Z,95948.50
2017-07-18T05:37:51.188Z,95940.05
2017-07-18T05:40:18.786Z,95938.73
2017-07-18T05:42:46.391Z,95942.24
2017-07-18T05:45:13.994Z,95945.48
2017-07-18T05:47:41.770Z,95956.78
2017-07-18T05:50:09.368Z,95953.50
2017-07-18T05:52:37.025Z,95960.76
2017-07-18T05:55:04.780Z,95952.06
2017-07-18T05:57:32.436Z,95953.96
2017-07-18T06:00:00.500Z,95958.92
2017-07-18T06:02:28.314Z,95953.25
2017-07-18T06:04:55.904Z,95949.77
2017-07-18T06:07:23.738Z,95952.91
2017-07-18T06:09:51.314Z,95947.20
2017-07-18T06:12:18.881Z,95952.70
2017-07-18T06:14:46.459Z,95950.50
2017-07-18T06:17:14.047Z,95954.23
2017-07-18T06:19:41.662Z,95946.52
2017-07-18T06:22:09.238Z,95942.46
2017-07-18T06:24:36.806Z,95945.55
2017-07-18T06:27:04.380Z,95939.66
2017-07-18T06:29:31.937Z,95943.80
2017-07-18T06:31:59.549Z,95947.00
2017-07-18T06:34:27.363Z,95943.86
2017-07-18T06:36:55.116Z,95945.23
2017-07-18T06:39:22.706Z,95939.50
2017-07-18T06:41:50.271Z,95942.04
2017-07-18T06:44:17.920Z,95941.03
2017-07-18T06:46:45.556Z,95936.44
2017-07-18T06:49:13.160Z,95939.42
2017-07-18T06:51:40.794Z,95935.30
2017-07-18T06:54:08.367Z,95940.42
2017-07-18T06:56:35.975Z,95941.98
2017-07-18T06:59:03.620Z,95941.79
2017-07-18T07:01:31.227Z,95942.26
2017-07-18T07:03:58.780Z,95941.59
2017-07-18T07:06:26.376Z,95937.48
2017-07-18T07:08:53.943Z,95939.21
2017-07-18T07:11:21.480Z,95945.34
2017-07-18T07:13:49.163Z,95942.52
2017-07-18T07:16:16.786Z,95943.18
2017-07-18T07:18:44.371Z,95941.43
2017-07-18T07:21:11.941Z,95941.69
2017-07-18T07:23:39.706Z,95941.03
2017-07-18T07:26:07.739Z,95939.77
2017-07-18T07:28:35.347Z,95947.17
2017-07-18T07:31:03.007Z,95941.77
2017-07-18T07:33:30.621Z,95945.30
2017-07-18T07:35:58.461Z,95949.88
2017-07-18T07:38:26.066Z,95946.89
2017-07-18T07:40:53.631Z,95939.36
2017-07-18T07:43:21.193Z,95946.66
2017-07-18T07:45:49.069Z,95945.42
2017-07-18T07:48:16.656Z,95947.84
2017-07-18T07:50:44.256Z,95941.75
2017-07-18T07:53:12.086Z,95942.80
2017-07-18T07:55:39.832Z,95948.00
2017-07-18T07:58:07.457Z,95943.12
2017-07-18T08:00:35.354Z,95946.22
2017-07-18T08:03:02.957Z,95941.98
2017-07-18T08:05:30.556Z,95947.34
2017-07-18T08:07:58.221Z,95949.30
2017-07-18T08:10:26.022Z,95957.00
2017-07-18T08:12:53.786Z,95947.77
2017-07-18T08:15:21.403Z,95951.90
2017-07-18T08:17:48.955Z,95946.41
2017-07-18T08:20:16.679Z,95953.69
2017-07-18T08:22:44.474Z,95952.31
2017-07-18T08:25:12.682Z,95954.20
2017-07-18T08:27:40.305Z,95957.78
2017-07-18T08:30:08.600Z,95953.84
2017-07-18T08:32:36.250Z,95957.78
2017-07-18T08:35:03.940Z,95959.80
2017-07-18T08:37:31.587Z,95963.13
2017-07-18T08:39:59.184Z,95966.86
2017-07-18T08:42:26.715Z,95964.13
2017-07-18T08:44:54.301Z,95965.45
2017-07-18T08:47:21.956Z,95965.64
2017-07-18T08:49:49.497Z,95960.18
2017-07-18T08:52:17.322Z,95965.67
2017-07-18T08:54:44.870Z,95963.53
2017-07-18T08:57:12.612Z,95966.23
2017-07-18T08:59:40.827Z,95972.29
2017-07-18T09:02:08.431Z,95966.97
2017-07-18T09:04:36.189Z,95961.50
2017-07-18T09:07:05.763Z,95973.48
2017-07-18T09:09:34.096Z,95974.05
2017-07-18T09:12:01.957Z,95973.91
2017-07-18T09:14:29.539Z,95977.22
2017-07-18T09:16:57.175Z,95965.81
2017-07-18T09:19:24.931Z,95962.72
2017-07-18T09:21:52.514Z,95966.38
2017-07-18T09:24:20.370Z,95971.25
2017-07-18T09:26:47.931Z,95973.47
2017-07-18T09:29:15.493Z,95968.53
2017-07-18T09:31:43.131Z,95960.06
2017-07-18T09:34:10.686Z,95966.48
2017-07-18T09:36:38.246Z,95962.41
2017-07-18T09:39:05.800Z,95961.25
2017-07-18T09:41:33.825Z,95942.91
2017-07-18T09:44:01.413Z,95956.34
2017-07-18T09:46:29.094Z,95964.31
2017-07-18T09:48:56.722Z,95965.75
2017-07-18T09:51:24.274Z,95969.49
2017-07-18T09:53:51.868Z,95957.89
2017-07-18T09:56:19.468Z,95961.00
2017-07-18T09:58:47.062Z,95953.73
2017-07-18T10:01:14.922Z,95949.94
2017-07-18T10:03:42.623Z,95954.91
2017-07-18T10:06:10.313Z,95951.16
2017-07-18T10:08:37.936Z,95950.62
2017-07-18T10:11:05.545Z,95945.73
2017-07-18T10:13:33.116Z,95948.45
2017-07-18T10:16:00.751Z,95945.23
2017-07-18T10:18:28.311Z,95942.48
2017-07-18T10:20:55.898Z,95942.22
2017-07-18T10:23:23.688Z,95938.03
2017-07-18T10:25:51.262Z,95947.34
2017-07-18T10:28:19.442Z,95942.59
2017-07-18T10:30:47.160Z,95941.96
2017-07-18T10:33:14.745Z,95944.50
2017-07-18T10:35:42.310Z,95944.22
2017-07-18T10:38:09.896Z,95943.98
2017-07-18T10:40:37.503Z,95937.09
2017-07-18T10:43:05.114Z,95923.66
2017-07-18T10:45:32.800Z,95923.58
2017-07-18T10:48:00.345Z,95908.81
2017-07-18T10:50:28.028Z,95907.34
2017-07-18T10:52:55.661Z,95906.07
2017-07-18T10:55:23.315Z,95913.53
2017-07-18T10:57:50.902Z,95906.44
2017-07-18T11:00:18.591Z,95907.23
2017-07-18T11:02:46.351Z,95888.86
2017-07-18T11:05:13.988Z,95896.80
2017-07-18T11:07:41.605Z,95897.97
2017-07-18T11:10:09.163Z,95903.34
2017-07-18T11:12:36.791Z,95892.52
2017-07-18T11:15:04.675Z,95895.27
2017-07-18T11:17:32.281Z,95891.49
2017-07-18T11:19:59.898Z,95889.92
2017-07-18T11:22:28.516Z,95891.30
2017-07-18T11:24:56.079Z,95887.23
2017-07-18T11:27:23.753Z,95879.45
2017-07-18T11:29:51.371Z,95874.16
2017-07-18T11:32:18.966Z,95875.97
2017-07-18T11:34:46.913Z,95861.47
2017-07-18T11:37:14.479Z,95865.62
2017-07-18T11:39:42.121Z,95870.29
2017-07-18T11:42:10.493Z,95859.90
2017-07-18T11:44:38.059Z,95866.62
2017-07-18T11:47:06.031Z,95854.45
2017-07-18T11:49:33.720Z,95849.50
2017-07-18T11:52:01.312Z,95851.02
2017-07-18T11:54:28.929Z,95857.17
2017-07-18T11:56:56.674Z,95842.91
2017-07-18T11:59:25.131Z,95843.12
2017-07-18T12:01:52.805Z,95842.59
2017-07-18T12:04:20.413Z,95848.86
2017-07-18T12:06:48.170Z,95844.47
2017-07-18T12:09:15.846Z,95842.12
2017-07-18T12:11:44.685Z,95843.01
2017-07-18T12:14:15.196Z,95843.69
2017-07-18T12:16:42.795Z,95845.94
2017-07-18T12:19:11.331Z,95833.00
2017-07-18T12:21:38.944Z,95839.25
2017-07-18T12:24:06.725Z,95837.08
2017-07-18T12:26:34.328Z,95841.81
2017-07-18T12:29:01.964Z,95841.80
2017-07-18T12:31:29.561Z,95834.63
2017-07-18T12:33:57.132Z,95832.97
2017-07-18T12:36:24.750Z,95836.11
2017-07-18T12:38:52.415Z,95834.79
2017-07-18T12:41:20.120Z,95834.80
2017-07-18T12:43:47.749Z,95829.36
2017-07-18T12:46:15.439Z,95827.00
2017-07-18T12:48:43.358Z,95825.52
2017-07-18T12:51:12.061Z,95816.20
2017-07-18T12:53:39.635Z,95834.88
2017-07-18T12:56:07.263Z,95825.31
2017-07-18T12:58:34.999Z,95830.61
2017-07-18T13:01:02.730Z,95831.00
2017-07-18T13:03:30.344Z,95824.11
2017-07-18T13:05:57.946Z,95815.84
2017-07-18T13:08:25.577Z,95816.19
2017-07-18T13:10:53.110Z,95815.59
2017-07-18T13:13:20.657Z,95821.06
2017-07-18T13:15:48.253Z,95817.89
2017-07-18T13:18:15.890Z,95814.59
2017-07-18T13:20:43.476Z,95811.93
2017-07-18T13:23:11.104Z,95817.09
2017-07-18T13:25:38.717Z,95813.71
2017-07-18T13:28:06.241Z,95820.77
2017-07-18T13:30:33.887Z,95814.98
2017-07-18T13:33:02.015Z,95816.03
2017-07-18T13:35:29.611Z,95819.38
2017-07-18T13:37:57.242Z,95812.38
2017-07-18T13:40:24.921Z,95815.95
2017-07-18T13:42:53.171Z,95812.77
2017-07-18T13:45:20.870Z,95814.69
2017-07-18T13:47:49.021Z,95818.63
2017-07-18T13:50:16.687Z,95819.91
2017-07-18T13:52:44.315Z,95815.96
2017-07-18T13:55:12.687Z,95811.69
2017-07-18T13:57:40.237Z,95817.84
2017-07-18T14:00:08.694Z,95825.70
2017-07-18T14:02:36.659Z,95817.01
2017-07-18T14:05:04.403Z,95813.05
2017-07-18T14:07:31.977Z,95810.94
2017-07-18T14:09:59.601Z,95810.75
2017-07-18T14:12:27.185Z,95810.31
2017-07-18T14:14:54.834Z,95807.78
2017-07-18T14:17:22.618Z,95807.98
2017-07-18T14:19:50.394Z,95810.07
2017-07-18T14:22:18.039Z,95806.36
2017-07-18T14:24:45.701Z,95808.05
2017-07-18T14:27:13.258Z,95807.13
2017-07-18T14:29:41.657Z,95804.79
2017-07-18T14:32:10.124Z,95806.98
2017-07-18T14:34:37.653Z,95807.27
2017-07-18T14:37:05.393Z,95807.34
2017-07-18T14:39:33.005Z,95801.86
2017-07-18T14:42:00.552Z,95800.77
2017-07-18T14:44:28.218Z,95803.98
2017-07-18T14:46:56.810Z,95799.77
2017-07-18T14:49:24.353Z,95793.58
2017-07-18T14:51:51.981Z,95801.44
2017-07-18T14:54:19.642Z,95798.05
2017-07-18T14:56:47.245Z,95797.27
2017-07-18T14:59:15.071Z,95801.55
2017-07-18T15:01:47.473Z,95786.42
2017-07-18T15:04:16.121Z,95794.63
2017-07-18T15:06:44.007Z,95798.55
2017-07-18T15:09:17.371Z,95797.75
2017-07-18T15:11:45.216Z,95796.90
2017-07-18T15:14:14.396Z,95804.78
2017-07-18T15:16:55.630Z,95813.72
2017-07-18T15:19:27.068Z,95799.17
2017-07-18T15:21:54.943Z,95808.32
2017-07-18T15:24:22.788Z,95805.97
2017-07-18T15:26:50.652Z,95804.91
2017-07-18T15:32:40.900Z,95804.38
2017-07-18T15:35:08.812Z,95808.08
2017-07-18T15:37:42.565Z,95811.16
2017-07-18T15:40:12.328Z,95814.31
2017-07-18T15:42:44.672Z,95817.41
2017-07-18T15:45:22.656Z,95820.00
2017-07-18T15:47:54.558Z,95814.59
2017-07-18T15:50:23.841Z,95820.61
2017-07-18T15:52:51.526Z,95823.02
2017-07-18T15:55:19.374Z,95824.63
2017-07-18T15:57:47.113Z,95829.27
2017-07-18T16:00:16.284Z,95824.16
2017-07-18T16:02:44.714Z,95828.44
2017-07-18T16:05:15.644Z,95827.45
2017-07-18T16:07:46.525Z,95833.25
2017-07-18T16:10:14.519Z,95831.79
2017-07-18T16:12:44.866Z,95822.89
2017-07-18T16:15:12.633Z,95837.63
2017-07-18T16:17:40.426Z,95828.84
2017-07-18T16:20:11.074Z,95835.58
2017-07-18T16:22:44.001Z,95830.70
2017-07-18T16:28:39.484Z,95831.97
2017-07-18T16:31:08.120Z,95828.17
2017-07-18T16:33:36.576Z,95829.90
2017-07-18T16:36:07.075Z,95833.69
2017-07-18T16:38:35.795Z,95827.20
2017-07-18T16:41:14.961Z,95828.31
2017-07-18T16:44:12.093Z,95834.28
2017-07-18T16:50:43.020Z,95846.83
2017-07-18T16:53:14.527Z,95850.70
2017-07-18T16:55:44.260Z,95847.16
2017-07-18T16:58:12.004Z,95852.88
2017-07-18T17:00:39.720Z,95854.25
2017-07-18T17:03:07.810Z,95862.18
2017-07-18T17:05:36.446Z,95860.77
2017-07-18T17:08:04.137Z,95860.49
2017-07-18T17:10:31.777Z,95850.80
2017-07-18T17:12:59.446Z,95856.27
2017-07-18T17:15:27.121Z,95857.61
2017-07-18T17:17:54.853Z,95853.59
2017-07-18T17:20:22.496Z,95854.55
2017-07-18T17:22:50.185Z,95857.56
2017-07-18T17:25:17.898Z,95861.55
2017-07-18T17:27:48.239Z,95857.72
2017-07-18T17:30:15.989Z,95854.92
2017-07-18T17:32:43.662Z,95861.73
2017-07-18T17:35:11.423Z,95863.55
2017-07-18T17:37:43.904Z,95867.30
2017-07-18T17:40:11.654Z,95866.42
2017-07-18T17:45:14.805Z,95861.31
2017-07-18T17:47:47.020Z,95856.87
2017-07-18T17:50:15.374Z,95864.96
2017-07-18T17:52:45.889Z,95863.02
2017-07-18T17:55:14.001Z,95859.68
2017-07-18T18:01:11.673Z,95869.42
2017-07-18T18:20:58.502Z,95875.64
2017-07-18T18:40:25.049Z,95894.34
2017-07-18T18:46:39.983Z,95898.09
2017-07-18T18:49:33.251Z,95902.59
2017-07-18T18:52:08.933Z,95897.70
2017-07-18T18:54:55.072Z,95899.66
2017-07-18T18:57:25.639Z,95901.03
2017-07-18T18:59:53.584Z,95897.89
2017-07-18T19:02:22.925Z,95903.57
2017-07-18T19:04:50.836Z,95899.28
2017-07-18T19:07:24.763Z,95905.94
2017-07-18T19:09:53.886Z,95907.90
2017-07-18T19:12:22.615Z,95906.91
2017-07-18T19:14:54.144Z,95902.97
2017-07-18T19:17:23.695Z,95906.31
2017-07-18T19:19:54.141Z,95902.56
2017-07-18T19:22:22.934Z,95905.48
2017-07-18T19:24:51.820Z,95908.02
2017-07-18T19:27:19.572Z,95911.19
2017-07-18T19:29:47.376Z,95922.78
2017-07-18T19:32:15.172Z,95918.08
2017-07-18T19:34:44.768Z,95917.48
2017-07-18T19:37:12.525Z,95912.19
2017-07-18T19:39:41.021Z,95913.06
2017-07-18T19:42:08.793Z,95920.31
2017-07-18T19:44:40.030Z,95920.29
2017-07-18T19:47:07.740Z,95920.00
2017-07-18T19:49:35.702Z,95921.97
2017-07-18T19:52:04.092Z,95926.70
2017-07-18T19:54:31.836Z,95918.64
2017-07-18T19:56:59.833Z,95921.60
2017-07-18T19:59:27.613Z,95921.00
2017-07-18T20:01:55.356Z,95932.95
2017-07-18T20:04:27.829Z,95928.84
2017-07-18T20:06:55.564Z,95919.83
2017-07-18T20:09:23.202Z,95928.82
2017-07-18T20:11:50.951Z,95924.41
2017-07-18T20:14:18.660Z,95920.48
2017-07-18T20:16:46.384Z,95926.92
2017-07-18T20:19:14.064Z,95926.16
2017-07-18T20:21:42.495Z,95922.83
2017-07-18T20:24:10.322Z,95928.34
2017-07-18T20:26:38.080Z,95923.44
2017-07-18T20:29:05.863Z,95923.55
2017-07-18T20:31:33.640Z,95924.55
2017-07-18T20:34:03.470Z,95929.00
2017-07-18T20:36:31.620Z,95928.00
2017-07-18T20:38:59.349Z,95930.92
2017-07-18T20:41:29.454Z,95925.64
2017-07-18T20:43:57.371Z,95925.44
2017-07-18T20:46:25.802Z,95931.25
2017-07-18T20:48:53.515Z,95932.47
2017-07-18T20:51:21.446Z,95934.31
2017-07-18T20:53:49.448Z,95944.24
2017-07-18T20:56:19.331Z,95934.24
2017-07-18T20:58:47.612Z,95931.67
2017-07-18T21:01:15.444Z,95924.77
2017-07-18T21:03:44.121Z,95924.52
2017-07-18T21:06:11.845Z,95932.20
2017-07-18T21:08:39.511Z,95934.77
2017-07-18T21:11:07.209Z,95933.75
2017-07-18T21:13:34.844Z,95937.25
2017-07-18T21:16:25.940Z,95936.28
2017-07-18T21:18:53.691Z,95936.80
2017-07-18T21:31:23.569Z,95936.64
2017-07-18T21:33:54.267Z,95927.44
2017-07-18T21:36:30.979Z,95933.31
2017-07-18T21:38:59.477Z,95929.61
2017-07-18T21:41:27.228Z,95925.03
2017-07-18T21:43:59.548Z,95923.34
2017-07-18T21:46:27.274Z,95925.33
2017-07-18T21:48:55.272Z,95917.90
2017-07-18T21:53:59.687Z,95924.06
2017-07-18T22:01:46.469Z,95920.77
2017-07-18T22:04:21.649Z,95920.36
2017-07-18T22:06:50.203Z,95926.83
2017-07-18T22:09:19.522Z,95925.39
2017-07-18T22:11:49.067Z,95932.23
2017-07-18T22:14:16.747Z,95923.17
2017-07-18T22:16:45.095Z,95919.29
2017-07-18T22:19:12.807Z,95925.32
2017-07-18T22:21:40.537Z,95924.23
2017-07-18T22:24:08.320Z,95929.66
2017-07-18T22:26:36.035Z,95934.13
2017-07-18T22:29:04.503Z,95935.19
2017-07-18T22:31:32.262Z,95940.45
2017-07-18T22:33:59.885Z,95936.51
2017-07-18T22:36:27.648Z,95934.22
2017-07-18T22:38:55.304Z,95925.55
2017-07-18T22:41:24.306Z,95926.99
2017-07-18T22:43:51.928Z,95926.86
2017-07-18T22:46:19.548Z,95928.08
2017-07-18T22:48:48.529Z,95928.08
2017-07-18T22:51:17.296Z,95920.69
2017-07-18T22:53:44.979Z,95930.98
2017-07-18T22:56:12.611Z,95935.05
2017-07-18T22:58:41.406Z,95935.79
2017-07-18T23:01:09.499Z,95931.90
2017-07-18T23:03:37.363Z,95929.45
2017-07-18T23:06:05.685Z,95928.01
2017-07-18T23:08:33.345Z,95933.00
2017-07-18T23:11:00.998Z,95931.87
2017-07-18T23:13:28.650Z,95939.31
2017-07-18T23:15:56.410Z,95934.92
2017-07-18T23:18:24.113Z,95937.87
2017-07-18T23:20:53.940Z,95931.78
2017-07-18T23:23:21.710Z,95937.42
2017-07-18T23:25:49.391Z,95942.12
2017-07-18T23:28:17.070Z,95942.19
2017-07-18T23:30:44.789Z,95941.83
2017-07-18T23:33:12.502Z,95941.42
2017-07-18T23:35:40.248Z,95940.75
2017-07-18T23:38:07.980Z,95926.99
2017-07-18T23:40:35.722Z,95921.72
2017-07-18T23:43:04.199Z,95921.55
2017-07-18T23:45:31.912Z,95925.09
2017-07-18T23:47:59.784Z,95929.95
2017-07-18T23:50:28.471Z,95932.13
2017-07-18T23:52:57.175Z,95927.45
2017-07-18T23:55:26.688Z,95927.94
2017-07-18T23:57:54.427Z,95937.83
